createdAt,value
2018-05-23T00:00:45.663Z,59.6
2018-05-23T00:01:35.463Z,59.6
2018-05-23T00:02:25.551Z,59.6
2018-05-23T00:03:15.867Z,59.6
2018-05-23T00:04:05.965Z,59.6
2018-05-23T00:04:55.995Z,59.6
2018-05-23T00:05:46.074Z,59.5
2018-05-23T00:06:35.844Z,59.6
2018-05-23T00:07:25.916Z,59.5
2018-05-23T00:08:16.278Z,59.5
2018-05-23T00:09:06.336Z,59.5
2018-05-23T00:11:57.520Z,59.5
2018-05-23T00:12:06.718Z,59.5
2018-05-23T00:12:57.046Z,59.5
2018-05-23T00:13:46.818Z,59.4
2018-05-23T00:14:36.632Z,59.4
2018-05-23T00:15:26.990Z,59.4
2018-05-23T00:16:17.043Z,59.4
2018-05-23T00:17:07.123Z,59.4
2018-05-23T00:17:57.447Z,59.4
2018-05-23T00:18:47.515Z,59.4
2018-05-23T00:19:37.568Z,59.4
2018-05-23T00:20:27.083Z,59.4
2018-05-23T00:21:17.116Z,59.4
2018-05-23T00:22:07.475Z,59.4
2018-05-23T00:22:57.267Z,59.4
2018-05-23T00:23:47.870Z,59.4
2018-05-23T00:24:37.667Z,59.4
2018-05-23T00:25:27.717Z,59.4
2018-05-23T00:26:17.885Z,59.3
2018-05-23T00:27:07.897Z,59.3
2018-05-23T00:27:58.189Z,59.3
2018-05-23T00:28:48.038Z,59.3
2018-05-23T00:29:38.334Z,59.3
2018-05-23T00:30:28.404Z,59.3
2018-05-23T00:31:18.455Z,59.3
2018-05-23T00:32:08.540Z,59.3
2018-05-23T00:32:58.038Z,59.3
2018-05-23T00:33:48.374Z,59.3
2018-05-23T00:34:38.477Z,59.3
2018-05-23T00:35:28.228Z,59.3
2018-05-23T00:36:18.810Z,59.3
2018-05-23T00:37:08.903Z,59.3
2018-05-23T00:37:58.709Z,59.3
2018-05-23T00:38:49.039Z,59.3
2018-05-23T00:39:38.813Z,59.3
2018-05-23T00:40:28.871Z,59.2
2018-05-23T00:41:19.041Z,59.3
2018-05-23T00:42:09.287Z,59.2
2018-05-23T00:42:59.364Z,59.2
2018-05-23T00:43:49.131Z,59.2
2018-05-23T00:44:39.494Z,59.2
2018-05-23T00:45:29.271Z,59.2
2018-05-23T00:46:19.394Z,59.2
2018-05-23T00:47:09.453Z,59.1
2018-05-23T00:47:59.499Z,59.1
2018-05-23T00:48:49.799Z,59.1
2018-05-23T00:49:39.855Z,59.1
2018-05-23T00:50:29.926Z,59.1
2018-05-23T00:51:19.404Z,59.1
2018-05-23T00:52:10.025Z,59.1
2018-05-23T00:52:59.349Z,59.1
2018-05-23T00:53:50.196Z,59.1
2018-05-23T00:54:40.267Z,59.1
2018-05-23T00:55:30.308Z,59.1
2018-05-23T00:56:20.370Z,59.1
2018-05-23T00:57:10.418Z,59.1
2018-05-23T00:58:00.481Z,59.1
2018-05-23T00:58:50.271Z,59.1
2018-05-23T00:59:40.342Z,59
2018-05-23T01:00:30.688Z,59
2018-05-23T01:01:20.468Z,59
2018-05-23T01:02:10.533Z,59
2018-05-23T01:03:00.584Z,59
2018-05-23T01:03:51.008Z,59
2018-05-23T01:04:40.998Z,59
2018-05-23T01:05:31.048Z,59
2018-05-23T01:06:21.153Z,58.9
2018-05-23T01:07:11.195Z,58.9
2018-05-23T01:08:00.980Z,58.9
2018-05-23T01:08:51.058Z,58.9
2018-05-23T01:09:41.367Z,58.9
2018-05-23T01:10:31.449Z,58.9
2018-05-23T01:11:21.502Z,58.9
2018-05-23T01:12:11.303Z,58.9
2018-05-23T01:13:01.647Z,58.9
2018-05-23T01:13:51.459Z,58.9
2018-05-23T01:14:41.522Z,58.9
2018-05-23T01:15:31.853Z,58.9
2018-05-23T01:16:21.904Z,58.9
2018-05-23T01:17:12.103Z,58.9
2018-05-23T01:18:01.761Z,58.9
2018-05-23T01:18:51.536Z,58.9
2018-05-23T01:19:42.133Z,58.8
2018-05-23T01:20:31.931Z,58.8
2018-05-23T01:21:21.979Z,58.8
2018-05-23T01:22:12.335Z,58.8
2018-05-23T01:23:02.399Z,58.8
2018-05-23T01:23:52.196Z,58.8
2018-05-23T01:24:42.534Z,58.8
2018-05-23T01:25:32.040Z,58.8
2018-05-23T01:26:22.658Z,58.8
2018-05-23T01:27:12.739Z,58.8
2018-05-23T01:28:02.506Z,58.8
2018-05-23T01:28:52.579Z,58.8
2018-05-23T01:29:42.921Z,58.8
2018-05-23T01:30:32.986Z,58.8
2018-05-23T01:31:22.786Z,58.8
2018-05-23T01:32:13.101Z,58.8
2018-05-23T01:33:03.175Z,58.8
2018-05-23T01:33:52.965Z,58.7
2018-05-23T01:34:43.048Z,58.7
2018-05-23T01:35:33.361Z,58.7
2018-05-23T01:36:22.596Z,58.7
2018-05-23T01:37:13.556Z,58.7
2018-05-23T01:38:03.542Z,58.7
2018-05-23T01:38:53.331Z,58.6
2018-05-23T01:39:43.695Z,58.7
2018-05-23T01:40:33.454Z,58.6
2018-05-23T01:41:23.543Z,58.6
2018-05-23T01:42:13.868Z,58.6
2018-05-23T01:43:03.659Z,58.6
2018-05-23T01:43:53.975Z,58.6
2018-05-23T01:44:43.793Z,58.6
2018-05-23T01:45:34.105Z,58.6
2018-05-23T01:46:24.264Z,58.6
2018-05-23T01:54:44.809Z,58.5
2018-05-23T01:55:34.858Z,58.5
2018-05-23T01:56:24.943Z,58.5
2018-05-23T01:57:14.983Z,58.5
2018-05-23T01:58:04.789Z,58.5
2018-05-23T01:58:55.129Z,58.5
2018-05-23T01:59:45.191Z,58.5
2018-05-23T02:00:34.679Z,58.4
2018-05-23T02:01:25.314Z,58.4
2018-05-23T02:02:15.375Z,58.4
2018-05-23T02:03:05.156Z,58.4
2018-05-23T02:03:55.531Z,58.4
2018-05-23T02:04:45.584Z,58.4
2018-05-23T02:05:35.355Z,58.4
2018-05-23T02:06:25.714Z,58.4
2018-05-23T02:07:15.487Z,58.4
2018-05-23T02:08:05.880Z,58.4
2018-05-23T02:08:55.600Z,58.4
2018-05-23T02:09:45.730Z,58.4
2018-05-23T02:10:35.759Z,58.4
2018-05-23T02:11:25.814Z,58.4
2018-05-23T02:12:16.129Z,58.4
2018-05-23T02:13:06.281Z,58.4
2018-05-23T02:13:55.704Z,58.4
2018-05-23T02:14:46.308Z,58.3
2018-05-23T02:15:36.203Z,58.3
2018-05-23T02:16:26.452Z,58.3
2018-05-23T02:17:15.958Z,58.3
2018-05-23T02:18:06.316Z,58.3
2018-05-23T02:18:56.355Z,58.3
2018-05-23T02:19:46.426Z,58.3
2018-05-23T02:20:36.758Z,58.3
2018-05-23T02:21:26.854Z,58.3
2018-05-23T02:22:16.619Z,58.3
2018-05-23T02:23:06.975Z,58.3
2018-05-23T02:23:56.745Z,58.3
2018-05-23T02:24:46.804Z,58.3
2018-05-23T02:25:37.135Z,58.3
2018-05-23T02:26:27.216Z,58.3
2018-05-23T02:27:17.270Z,58.2
2018-05-23T02:28:07.332Z,58.2
2018-05-23T02:28:57.402Z,58.2
2018-05-23T02:29:47.470Z,58.2
2018-05-23T02:30:37.529Z,58.2
2018-05-23T02:31:27.632Z,58.2
2018-05-23T02:32:17.687Z,58.2
2018-05-23T02:33:07.467Z,58.2
2018-05-23T02:33:57.514Z,58.2
2018-05-23T02:34:47.300Z,58.2
2018-05-23T02:35:37.626Z,58.1
2018-05-23T02:36:28.097Z,58.1
2018-05-23T02:37:17.489Z,58.1
2018-05-23T02:38:07.825Z,58.1
2018-05-23T02:38:57.902Z,58.1
2018-05-23T02:39:48.242Z,58.1
2018-05-23T02:40:38.304Z,58.1
2018-05-23T02:41:28.375Z,58.1
2018-05-23T02:42:18.156Z,58.1
2018-05-23T02:43:07.935Z,58.1
2018-05-23T02:43:57.973Z,58.1
2018-05-23T02:44:48.624Z,58.1
2018-05-23T02:45:38.107Z,58.1
2018-05-23T02:46:27.899Z,58.1
2018-05-23T02:47:18.778Z,58
2018-05-23T02:48:08.861Z,58
2018-05-23T02:48:58.361Z,58
2018-05-23T02:49:48.696Z,58
2018-05-23T02:50:39.040Z,58
2018-05-23T02:51:29.111Z,58
2018-05-23T02:52:18.594Z,58
2018-05-23T02:53:08.958Z,58
2018-05-23T02:53:59.303Z,57.9
2018-05-23T02:54:49.372Z,57.9
2018-05-23T02:55:39.546Z,58
2018-05-23T02:56:29.507Z,57.9
2018-05-23T02:57:19.578Z,57.9
2018-05-23T02:58:09.613Z,57.9
2018-05-23T02:58:59.393Z,57.9
2018-05-23T02:59:49.528Z,57.9
2018-05-23T03:00:39.848Z,57.9
2018-05-23T03:01:29.615Z,57.9
2018-05-23T03:02:19.372Z,57.9
2018-05-23T03:03:10.351Z,57.9
2018-05-23T03:04:00.080Z,57.9
2018-05-23T03:04:49.851Z,57.9
2018-05-23T03:05:39.905Z,57.9
2018-05-23T03:06:30.281Z,57.9
2018-05-23T03:07:19.818Z,57.9
2018-05-23T03:08:10.111Z,57.8
2018-05-23T03:08:59.672Z,57.8
2018-05-23T03:09:50.511Z,57.8
2018-05-23T03:10:40.091Z,57.8
2018-05-23T03:11:30.147Z,57.8
2018-05-23T03:12:20.201Z,57.8
2018-05-23T03:13:10.280Z,57.8
2018-05-23T03:14:00.324Z,57.8
2018-05-23T03:14:50.905Z,57.8
2018-05-23T03:15:40.970Z,57.8
2018-05-23T03:22:21.188Z,57.7
2018-05-23T03:23:11.509Z,57.7
2018-05-23T03:24:01.587Z,57.7
2018-05-23T03:24:51.638Z,57.7
2018-05-23T03:25:41.626Z,57.7
2018-05-23T03:26:31.788Z,57.7
2018-05-23T03:27:21.561Z,57.7
2018-05-23T03:28:11.898Z,57.7
2018-05-23T03:29:02.031Z,57.6
2018-05-23T03:29:51.757Z,57.6
2018-05-23T03:30:42.077Z,57.6
2018-05-23T03:31:32.174Z,57.6
2018-05-23T03:32:22.290Z,57.6
2018-05-23T03:33:12.286Z,57.6
2018-05-23T03:34:02.342Z,57.6
2018-05-23T03:34:51.663Z,57.6
2018-05-23T03:35:41.979Z,57.6
2018-05-23T03:36:32.036Z,57.6
2018-05-23T03:37:21.865Z,57.6
2018-05-23T03:38:11.900Z,57.6
2018-05-23T03:39:02.472Z,57.6
2018-05-23T03:39:52.803Z,57.6
2018-05-23T03:40:42.577Z,57.6
2018-05-23T03:41:32.343Z,57.6
2018-05-23T03:42:22.989Z,57.6
2018-05-23T03:43:13.028Z,57.6
2018-05-23T03:44:03.188Z,57.6
2018-05-23T03:44:52.315Z,57.6
2018-05-23T03:45:43.233Z,57.5
2018-05-23T03:46:33.317Z,57.5
2018-05-23T03:47:23.123Z,57.5
2018-05-23T03:48:13.146Z,57.5
2018-05-23T03:49:03.219Z,57.5
2018-05-23T03:49:53.279Z,57.4
2018-05-23T03:50:43.322Z,57.4
2018-05-23T03:51:33.724Z,57.4
2018-05-23T03:52:23.723Z,57.4
2018-05-23T03:53:13.643Z,57.4
2018-05-23T03:54:03.606Z,57.4
2018-05-23T03:54:53.934Z,57.4
2018-05-23T03:55:43.714Z,57.4
2018-05-23T03:56:34.080Z,57.4
2018-05-23T03:57:23.546Z,57.4
2018-05-23T03:58:13.910Z,57.4
2018-05-23T03:59:04.268Z,57.4
2018-05-23T03:59:53.474Z,57.4
2018-05-23T04:00:44.381Z,57.4
2018-05-23T04:01:34.182Z,57.4
2018-05-23T04:02:24.228Z,57.4
2018-05-23T04:03:14.574Z,57.4
2018-05-23T04:04:04.363Z,57.4
2018-05-23T04:04:55.194Z,57.3
2018-05-23T04:05:44.783Z,57.4
2018-05-23T04:06:34.828Z,57.3
2018-05-23T04:07:24.600Z,57.3
2018-05-23T04:08:14.965Z,57.3
2018-05-23T04:09:05.021Z,57.3
2018-05-23T04:09:55.084Z,57.3
2018-05-23T04:10:45.225Z,57.3
2018-05-23T04:11:34.643Z,57.3
2018-05-23T04:12:25.258Z,57.3
2018-05-23T04:13:15.335Z,57.3
2018-05-23T04:14:05.116Z,57.3
2018-05-23T04:14:55.227Z,57.3
2018-05-23T04:15:45.603Z,57.3
2018-05-23T04:16:35.599Z,57.3
2018-05-23T04:17:25.666Z,57.3
2018-05-23T04:18:15.698Z,57.3
2018-05-23T04:19:05.236Z,57.3
2018-05-23T04:19:55.839Z,57.2
2018-05-23T04:20:45.901Z,57.2
2018-05-23T04:21:35.687Z,57.2
2018-05-23T04:22:25.761Z,57.2
2018-05-23T04:23:16.138Z,57.2
2018-05-23T04:24:06.644Z,57.2
2018-05-23T04:24:56.794Z,57.1
2018-05-23T04:25:46.285Z,57.2
2018-05-23T04:26:36.357Z,57.1
2018-05-23T04:27:26.436Z,57.1
2018-05-23T04:28:16.510Z,57.1
2018-05-23T04:29:06.265Z,57.1
2018-05-23T04:29:56.610Z,57.1
2018-05-23T04:30:46.669Z,57.1
2018-05-23T04:31:36.746Z,57.1
2018-05-23T04:32:26.815Z,57.1
2018-05-23T04:33:16.846Z,57.1
2018-05-23T04:34:06.646Z,57.1
2018-05-23T04:34:56.716Z,57.1
2018-05-23T04:35:47.043Z,57.1
2018-05-23T04:36:36.859Z,57.1
2018-05-23T04:37:27.166Z,57.1
2018-05-23T04:38:16.951Z,57.1
2018-05-23T04:39:07.039Z,57.1
2018-05-23T04:39:56.803Z,57
2018-05-23T04:40:46.888Z,57
2018-05-23T04:41:37.496Z,57
2018-05-23T04:42:27.565Z,57
2018-05-23T04:43:16.960Z,57
2018-05-23T04:44:07.128Z,57
2018-05-23T04:44:57.485Z,57
2018-05-23T04:45:47.836Z,57
2018-05-23T04:46:37.648Z,56.9
2018-05-23T04:47:27.942Z,56.9
2018-05-23T04:48:17.445Z,56.9
2018-05-23T04:49:08.080Z,56.9
2018-05-23T04:49:58.137Z,56.9
2018-05-23T04:50:48.212Z,56.9
2018-05-23T04:51:37.715Z,56.9
2018-05-23T04:52:28.345Z,56.9
2018-05-23T04:53:18.133Z,56.8
2018-05-23T04:54:08.192Z,56.8
2018-05-23T04:54:58.337Z,56.8
2018-05-23T04:55:48.587Z,56.8
2018-05-23T04:56:38.367Z,56.8
2018-05-23T04:57:28.712Z,56.8
2018-05-23T04:58:18.808Z,56.8
2018-05-23T04:59:08.559Z,56.8
2018-05-23T04:59:58.924Z,56.8
2018-05-23T05:00:48.684Z,56.8
2018-05-23T05:01:38.744Z,56.8
2018-05-23T05:02:28.829Z,56.8
2018-05-23T05:03:19.190Z,56.8
2018-05-23T05:04:08.662Z,56.8
2018-05-23T05:04:59.004Z,56.8
2018-05-23T05:05:49.361Z,56.8
2018-05-23T05:06:39.131Z,56.8
2018-05-23T05:07:28.924Z,56.8
2018-05-23T05:08:19.259Z,56.7
2018-05-23T05:09:09.619Z,56.7
2018-05-23T05:10:00.169Z,56.7
2018-05-23T05:10:49.728Z,56.7
2018-05-23T05:11:39.790Z,56.7
2018-05-23T05:12:29.575Z,56.7
2018-05-23T05:13:19.903Z,56.7
2018-05-23T05:14:09.672Z,56.6
2018-05-23T05:14:59.495Z,56.7
2018-05-23T05:15:50.082Z,56.6
2018-05-23T05:16:40.157Z,56.6
2018-05-23T05:17:30.234Z,56.6
2018-05-23T05:18:20.300Z,56.6
2018-05-23T05:19:10.357Z,56.6
2018-05-23T05:20:00.234Z,56.6
2018-05-23T05:20:50.480Z,56.6
2018-05-23T05:21:40.531Z,56.6
2018-05-23T05:22:30.602Z,56.6
2018-05-23T05:23:20.661Z,56.6
2018-05-23T05:24:10.194Z,56.6
2018-05-23T05:25:01.560Z,56.6
2018-05-23T05:25:50.849Z,56.6
2018-05-23T05:26:40.920Z,56.6
2018-05-23T05:27:30.749Z,56.5
2018-05-23T05:28:21.082Z,56.5
2018-05-23T05:29:11.110Z,56.5
2018-05-23T05:30:01.182Z,56.5
2018-05-23T05:30:51.253Z,56.5
2018-05-23T05:31:40.869Z,56.5
2018-05-23T05:32:31.362Z,56.5
2018-05-23T05:33:21.425Z,56.5
2018-05-23T05:34:11.502Z,56.5
2018-05-23T05:35:01.611Z,56.4
2018-05-23T05:35:51.629Z,56.4
2018-05-23T05:36:41.149Z,56.4
2018-05-23T05:37:31.948Z,56.4
2018-05-23T05:38:21.524Z,56.4
2018-05-23T05:39:11.948Z,56.4
2018-05-23T05:40:01.723Z,56.4
2018-05-23T05:40:51.445Z,56.4
2018-05-23T05:41:42.106Z,56.4
2018-05-23T05:42:32.139Z,56.4
2018-05-23T05:43:21.728Z,56.4
2018-05-23T05:44:12.253Z,56.4
2018-05-23T05:45:02.340Z,56.4
2018-05-23T05:45:52.389Z,56.4
2018-05-23T05:46:42.435Z,56.3
2018-05-23T05:47:32.508Z,56.3
2018-05-23T05:48:22.571Z,56.3
2018-05-23T05:49:12.377Z,56.3
2018-05-23T05:50:02.698Z,56.3
2018-05-23T05:50:52.767Z,56.3
2018-05-23T05:51:42.541Z,56.3
2018-05-23T05:52:32.895Z,56.3
2018-05-23T05:53:22.732Z,56.3
2018-05-23T05:54:13.048Z,56.3
2018-05-23T05:55:02.545Z,56.3
2018-05-23T05:55:53.182Z,56.3
2018-05-23T05:56:43.224Z,56.3
2018-05-23T05:57:33.285Z,56.3
2018-05-23T05:58:22.763Z,56.3
2018-05-23T05:59:13.417Z,56.3
2018-05-23T06:00:02.915Z,56.2
2018-05-23T06:00:53.542Z,56.2
2018-05-23T06:01:43.323Z,56.3
2018-05-23T06:02:33.655Z,56.2
2018-05-23T06:03:23.731Z,56.2
2018-05-23T06:04:13.258Z,56.2
2018-05-23T06:05:03.868Z,56.2
2018-05-23T06:05:53.926Z,56.2
2018-05-23T06:06:43.690Z,56.2
2018-05-23T06:07:33.781Z,56.1
2018-05-23T06:08:24.127Z,56.1
2018-05-23T06:09:14.191Z,56.1
2018-05-23T06:10:04.193Z,56.1
2018-05-23T06:10:54.296Z,56.1
2018-05-23T06:11:44.113Z,56.1
2018-05-23T06:12:34.445Z,56.1
2018-05-23T06:13:24.495Z,56.1
2018-05-23T06:14:14.558Z,56.1
2018-05-23T06:15:04.135Z,56.1
2018-05-23T06:15:54.767Z,56.1
2018-05-23T06:16:44.203Z,56.1
2018-05-23T06:17:34.545Z,56.1
2018-05-23T06:18:24.891Z,56.1
2018-05-23T06:19:14.663Z,56.1
2018-05-23T06:20:04.731Z,56.1
2018-05-23T06:20:54.506Z,56.1
2018-05-23T06:21:45.158Z,56.1
2018-05-23T06:22:34.917Z,56
2018-05-23T06:23:24.983Z,56
2018-05-23T06:24:15.323Z,56
2018-05-23T06:25:05.382Z,56
2018-05-23T06:25:55.500Z,56
2018-05-23T06:26:45.504Z,56
2018-05-23T06:27:35.392Z,55.9
2018-05-23T06:28:25.679Z,55.9
2018-05-23T06:29:15.150Z,55.9
2018-05-23T06:30:05.487Z,55.9
2018-05-23T06:30:55.652Z,55.9
2018-05-23T06:31:45.900Z,55.9
2018-05-23T06:32:35.130Z,55.9
2018-05-23T06:33:25.769Z,55.9
2018-05-23T06:34:16.097Z,55.9
2018-05-23T06:35:06.149Z,55.9
2018-05-23T06:35:55.651Z,55.9
2018-05-23T06:36:46.274Z,55.9
2018-05-23T06:37:36.049Z,55.9
2018-05-23T06:38:26.406Z,55.9
2018-05-23T06:39:16.480Z,55.9
2018-05-23T06:40:06.280Z,55.9
2018-05-23T06:40:56.596Z,55.9
2018-05-23T06:41:46.703Z,55.9
2018-05-23T06:42:36.745Z,55.8
2018-05-23T06:43:26.770Z,55.8
2018-05-23T06:44:16.585Z,55.8
2018-05-23T06:45:06.942Z,55.8
2018-05-23T06:45:57.026Z,55.8
2018-05-23T06:46:46.530Z,55.8
2018-05-23T06:47:37.112Z,55.8
2018-05-23T06:48:27.207Z,55.8
2018-05-23T06:49:16.991Z,55.8
2018-05-23T06:50:08.133Z,55.8
2018-05-23T06:50:57.120Z,55.8
2018-05-23T06:51:47.451Z,55.8
2018-05-23T06:52:37.283Z,55.8
2018-05-23T06:53:27.475Z,55.8
2018-05-23T06:54:17.621Z,55.8
2018-05-23T06:55:07.436Z,55.8
2018-05-23T06:55:57.763Z,55.8
2018-05-23T06:56:47.847Z,55.8
2018-05-23T06:57:37.628Z,55.8
2018-05-23T06:58:27.672Z,55.8
2018-05-23T06:59:18.031Z,55.7
2018-05-23T07:00:09.725Z,55.7
2018-05-23T07:00:59.245Z,55.7
2018-05-23T07:01:49.288Z,55.7
2018-05-23T07:02:39.641Z,55.7
2018-05-23T07:03:28.092Z,55.7
2018-05-23T07:04:17.859Z,55.6
2018-05-23T07:05:08.479Z,55.7
2018-05-23T07:05:58.793Z,55.7
2018-05-23T07:06:49.491Z,55.7
2018-05-23T07:07:39.729Z,55.6
2018-05-23T07:08:29.617Z,55.6
2018-05-23T07:09:20.752Z,55.6
2018-05-23T07:10:10.522Z,55.6
2018-05-23T07:10:58.979Z,55.6
2018-05-23T07:11:48.697Z,55.6
2018-05-23T07:12:39.043Z,55.6
2018-05-23T07:13:30.819Z,55.6
2018-05-23T07:14:21.112Z,55.6
2018-05-23T07:15:10.437Z,55.6
2018-05-23T07:16:00.694Z,55.6
2018-05-23T07:16:50.738Z,55.6
2018-05-23T07:17:41.081Z,55.6
2018-05-23T07:18:31.210Z,55.6
2018-05-23T07:19:21.501Z,55.6
2018-05-23T07:20:11.036Z,55.6
2018-05-23T07:21:01.681Z,55.5
2018-05-23T07:21:51.227Z,55.5
2018-05-23T07:22:41.491Z,55.5
2018-05-23T07:23:31.570Z,55.5
2018-05-23T07:24:21.597Z,55.5
2018-05-23T07:25:11.961Z,55.5
2018-05-23T07:26:02.542Z,55.5
2018-05-23T07:26:52.085Z,55.5
2018-05-23T07:27:41.587Z,55.5
2018-05-23T07:28:32.197Z,55.4
2018-05-23T07:29:22.012Z,55.4
2018-05-23T07:30:12.334Z,55.4
2018-05-23T07:31:02.427Z,55.4
2018-05-23T07:31:53.131Z,55.4
2018-05-23T07:32:41.998Z,55.4
2018-05-23T07:33:32.609Z,55.4
2018-05-23T07:34:22.453Z,55.4
2018-05-23T07:35:12.726Z,55.4
2018-05-23T07:36:02.504Z,55.4
2018-05-23T07:36:52.853Z,55.4
2018-05-23T07:37:42.926Z,55.4
2018-05-23T07:38:33.321Z,55.4
2018-05-23T07:39:23.043Z,55.4
2018-05-23T07:40:12.863Z,55.4
2018-05-23T07:41:03.169Z,55.4
2018-05-23T07:41:53.288Z,55.4
2018-05-23T07:42:43.290Z,55.4
2018-05-23T07:43:32.250Z,55.3
2018-05-23T07:44:23.164Z,55.4
2018-05-23T07:45:13.013Z,55.3
2018-05-23T07:46:03.246Z,55.3
2018-05-23T07:46:53.329Z,55.3
2018-05-23T07:47:42.870Z,55.3
2018-05-23T07:48:33.483Z,55.3
2018-05-23T07:49:23.355Z,55.3
2018-05-23T07:50:13.915Z,55.3
2018-05-23T07:51:03.678Z,55.3
2018-05-23T07:51:53.730Z,55.3
2018-05-23T07:52:43.498Z,55.3
2018-05-23T07:53:34.161Z,55.3
2018-05-23T07:54:23.433Z,55.3
2018-05-23T07:55:14.264Z,55.3
2018-05-23T07:56:03.477Z,55.3
2018-05-23T07:56:53.857Z,55.3
2018-05-23T07:57:44.207Z,55.3
2018-05-23T07:58:33.976Z,55.3
2018-05-23T07:59:24.333Z,55.3
2018-05-23T08:00:14.109Z,55.2
2018-05-23T08:01:04.466Z,55.2
2018-05-23T08:01:54.236Z,55.2
2018-05-23T08:02:44.856Z,55.2
2018-05-23T08:03:34.913Z,55.2
2018-05-23T08:04:24.720Z,55.2
2018-05-23T08:05:14.823Z,55.2
2018-05-23T08:06:04.846Z,55.2
2018-05-23T08:06:54.989Z,55.2
2018-05-23T08:07:45.285Z,55.2
2018-05-23T08:08:35.314Z,55.1
2018-05-23T08:09:25.384Z,55.1
2018-05-23T08:10:15.171Z,55.1
2018-05-23T08:11:05.503Z,55.1
2018-05-23T08:11:55.358Z,55.1
2018-05-23T08:12:45.384Z,55.1
2018-05-23T08:13:35.689Z,55.1
2018-05-23T08:14:25.742Z,55.1
2018-05-23T08:15:15.264Z,55.1
2018-05-23T08:16:05.603Z,55.1
2018-05-23T08:16:55.441Z,55.1
2018-05-23T08:17:46.018Z,55.1
2018-05-23T08:18:35.240Z,55
2018-05-23T08:19:25.623Z,54.9
2018-05-23T08:20:16.288Z,55
2018-05-23T08:21:06.287Z,55.1
2018-05-23T08:21:56.057Z,55.1
2018-05-23T08:22:46.452Z,55.2
2018-05-23T08:23:36.497Z,55.3
2018-05-23T08:24:26.737Z,55.3
2018-05-23T08:25:15.753Z,55.4
2018-05-23T08:26:06.405Z,55.4
2018-05-23T08:26:56.455Z,55.4
2018-05-23T08:27:46.777Z,55.5
2018-05-23T08:28:36.868Z,55.6
2018-05-23T08:29:25.808Z,55.6
2018-05-23T08:30:17.099Z,55.7
2018-05-23T08:31:07.064Z,55.8
2018-05-23T08:31:56.838Z,55.8
2018-05-23T08:32:46.880Z,55.8
2018-05-23T08:33:36.409Z,55.9
2018-05-23T08:34:27.000Z,55.9
2018-05-23T08:35:17.360Z,55.9
2018-05-23T08:36:07.184Z,56
2018-05-23T08:36:57.498Z,56.1
2018-05-23T08:37:46.715Z,56.1
2018-05-23T08:38:37.320Z,56.1
2018-05-23T08:39:27.183Z,56.1
2018-05-23T08:40:17.743Z,56.1
2018-05-23T08:41:07.525Z,56.2
2018-05-23T08:41:57.602Z,56.2
2018-05-23T08:42:47.644Z,56.2
2018-05-23T08:43:37.252Z,56.3
2018-05-23T08:44:28.065Z,56.3
2018-05-23T08:45:18.259Z,56.3
2018-05-23T08:46:09.021Z,56.3
2018-05-23T08:46:58.011Z,56.3
2018-05-23T08:47:48.047Z,56.3
2018-05-23T08:48:38.396Z,56.3
2018-05-23T08:49:27.652Z,56.3
2018-05-23T08:50:18.520Z,56.3
2018-05-23T08:51:08.594Z,56.3
2018-05-23T08:51:58.697Z,56.3
2018-05-23T08:52:48.465Z,56.3
2018-05-23T08:53:38.598Z,56.3
2018-05-23T08:54:28.379Z,56.4
2018-05-23T08:55:18.450Z,56.4
2018-05-23T08:56:09.005Z,56.4
2018-05-23T08:56:59.053Z,56.4
2018-05-23T08:57:48.364Z,56.5
2018-05-23T08:58:38.336Z,56.5
2018-05-23T08:59:29.247Z,56.6
2018-05-23T09:00:19.301Z,56.6
2018-05-23T09:01:08.814Z,56.7
2018-05-23T09:01:59.143Z,56.8
2018-05-23T09:02:49.016Z,56.8
2018-05-23T09:03:39.546Z,56.9
2018-05-23T09:04:29.365Z,56.9
2018-05-23T09:05:19.291Z,56.9
2018-05-23T09:06:09.739Z,57
2018-05-23T09:06:59.547Z,57.1
2018-05-23T09:07:49.150Z,57.1
2018-05-23T09:08:39.193Z,57.2
2018-05-23T09:09:30.013Z,57.3
2018-05-23T09:10:20.070Z,57.3
2018-05-23T09:11:10.179Z,57.3
2018-05-23T09:11:59.651Z,57.4
2018-05-23T09:12:49.734Z,57.4
2018-05-23T09:13:39.801Z,57.4
2018-05-23T09:14:29.869Z,57.5
2018-05-23T09:15:19.636Z,57.6
2018-05-23T09:16:10.144Z,57.6
2018-05-23T09:16:59.386Z,57.7
2018-05-23T09:17:49.924Z,57.7
2018-05-23T09:19:30.254Z,57.8
2018-05-23T09:20:20.598Z,57.9
2018-05-23T09:21:10.923Z,57.9
2018-05-23T09:22:00.462Z,58
2018-05-23T09:22:51.031Z,58.1
2018-05-23T09:23:41.131Z,58.1
2018-05-23T09:24:30.914Z,58.2
2018-05-23T09:25:21.490Z,58.3
2018-05-23T09:26:11.298Z,58.3
2018-05-23T09:27:01.099Z,58.4
2018-05-23T09:27:50.894Z,58.4
2018-05-23T09:28:41.484Z,58.4
2018-05-23T09:29:31.654Z,58.5
2018-05-23T09:30:21.364Z,58.5
2018-05-23T09:31:10.579Z,58.5
2018-05-23T09:33:41.897Z,58.6
2018-05-23T09:34:31.963Z,58.6
2018-05-23T09:35:22.061Z,58.6
2018-05-23T09:36:12.061Z,58.6
2018-05-23T09:37:01.627Z,58.7
2018-05-23T09:37:51.695Z,58.7
2018-05-23T09:38:42.272Z,58.7
2018-05-23T09:39:32.344Z,58.7
2018-05-23T09:40:21.670Z,58.7
2018-05-23T09:41:10.604Z,58.7
2018-05-23T09:42:00.333Z,58.7
2018-05-23T09:42:50.667Z,58.7
2018-05-23T09:43:39.914Z,58.7
2018-05-23T09:44:30.846Z,58.7
2018-05-23T09:45:20.856Z,58.7
2018-05-23T09:46:10.944Z,58.7
2018-05-23T09:47:00.746Z,58.7
2018-05-23T09:47:51.056Z,58.7
2018-05-23T09:48:41.144Z,58.7
2018-05-23T09:49:30.924Z,58.7
2018-05-23T09:50:21.271Z,58.8
2018-05-23T09:51:11.355Z,58.8
2018-05-23T09:52:01.116Z,58.8
2018-05-23T09:52:51.442Z,58.8
2018-05-23T09:53:41.526Z,58.8
2018-05-23T09:54:31.581Z,58.9
2018-05-23T09:55:21.634Z,58.9
2018-05-23T09:56:11.450Z,58.9
2018-05-23T09:57:01.511Z,59
2018-05-23T09:57:53.858Z,59.1
2018-05-23T09:58:43.835Z,59.1
2018-05-23T09:59:33.885Z,59.1
2018-05-23T10:00:23.120Z,59.2
2018-05-23T10:01:13.754Z,59.3
2018-05-23T10:02:04.184Z,59.3
2018-05-23T10:02:54.122Z,59.4
2018-05-23T10:03:43.937Z,59.4
2018-05-23T10:04:33.706Z,59.5
2018-05-23T10:05:24.344Z,59.6
2018-05-23T10:06:14.132Z,59.6
2018-05-23T10:07:03.909Z,59.7
2018-05-23T10:07:54.359Z,59.8
2018-05-23T10:08:44.315Z,59.8
2018-05-23T10:09:34.116Z,59.9
2018-05-23T10:10:24.839Z,60
2018-05-23T10:11:14.805Z,60.1
2018-05-23T10:12:04.857Z,60.3
2018-05-23T10:12:54.897Z,60.4
2018-05-23T10:13:44.724Z,60.5
2018-05-23T10:14:35.037Z,60.6
2018-05-23T10:15:25.102Z,60.7
2018-05-23T10:16:15.145Z,60.8
2018-05-23T10:17:05.241Z,60.9
2018-05-23T10:17:55.309Z,61
2018-05-23T10:18:44.913Z,61.1
2018-05-23T10:19:35.430Z,61.3
2018-05-23T10:20:25.492Z,61.3
2018-05-23T10:21:15.575Z,61.4
2018-05-23T10:22:05.634Z,61.4
2018-05-23T10:22:55.158Z,61.6
2018-05-23T10:23:45.475Z,61.7
2018-05-23T10:24:35.625Z,61.8
2018-05-23T10:25:25.611Z,61.9
2018-05-23T10:26:16.181Z,62
2018-05-23T10:27:06.015Z,62.1
2018-05-23T10:27:56.063Z,62.2
2018-05-23T10:28:45.314Z,62.3
2018-05-23T10:29:35.936Z,62.4
2018-05-23T10:30:26.300Z,62.5
2018-05-23T10:31:15.532Z,62.6
2018-05-23T10:32:05.577Z,62.7
2018-05-23T10:32:55.659Z,62.8
2018-05-23T10:33:46.557Z,62.8
2018-05-23T10:34:36.064Z,62.9
2018-05-23T10:35:26.672Z,63
2018-05-23T10:36:16.498Z,63.1
2018-05-23T10:37:06.832Z,63.1
2018-05-23T10:37:56.872Z,63.3
2018-05-23T10:38:46.927Z,63.4
2018-05-23T10:39:36.983Z,63.4
2018-05-23T10:40:27.091Z,63.4
2018-05-23T10:41:16.273Z,63.6
2018-05-23T10:42:06.926Z,63.6
2018-05-23T10:42:57.266Z,63.8
2018-05-23T10:43:47.043Z,63.9
2018-05-23T10:44:37.108Z,64
2018-05-23T10:45:27.479Z,64.1
2018-05-23T10:46:18.349Z,64.1
2018-05-23T10:47:06.837Z,64.3
2018-05-23T10:47:57.081Z,64.4
2018-05-23T10:48:46.879Z,64.4
2018-05-23T10:49:37.805Z,64.5
2018-05-23T10:50:27.561Z,64.6
2018-05-23T10:51:17.063Z,64.6
2018-05-23T10:52:08.745Z,64.8
2018-05-23T10:52:57.477Z,64.8
2018-05-23T10:53:48.088Z,64.9
2018-05-23T10:54:37.908Z,64.9
2018-05-23T10:55:27.661Z,65.1
2018-05-23T10:56:17.555Z,65.1
2018-05-23T10:57:08.943Z,65.2
2018-05-23T10:57:58.186Z,65.4
2018-05-23T10:58:48.536Z,65.4
2018-05-23T10:59:38.564Z,65.5
2018-05-23T11:00:28.370Z,65.6
2018-05-23T11:01:18.425Z,65.6
2018-05-23T11:02:08.010Z,65.7
2018-05-23T11:02:59.139Z,65.8
2018-05-23T11:03:48.627Z,65.9
2018-05-23T11:04:38.105Z,65.9
2018-05-23T11:05:29.034Z,66
2018-05-23T11:06:18.818Z,66
2018-05-23T11:07:08.886Z,66.1
2018-05-23T11:07:59.310Z,66.2
2018-05-23T11:08:49.412Z,66.3
2018-05-23T11:09:39.340Z,66.3
2018-05-23T11:10:29.224Z,66.4
2018-05-23T11:11:19.490Z,66.5
2018-05-23T11:12:09.305Z,66.6
2018-05-23T11:12:59.334Z,66.7
2018-05-23T11:13:48.875Z,66.8
2018-05-23T11:14:39.458Z,66.8
2018-05-23T11:15:28.683Z,66.9
2018-05-23T11:16:19.867Z,67
2018-05-23T11:17:09.105Z,67.1
2018-05-23T11:17:59.735Z,67.2
2018-05-23T11:18:49.812Z,67.3
2018-05-23T11:19:40.138Z,67.3
2018-05-23T11:20:30.201Z,67.4
2018-05-23T11:21:20.321Z,67.4
2018-05-23T11:22:10.329Z,67.5
2018-05-23T11:23:00.100Z,67.6
2018-05-23T11:23:50.572Z,67.6
2018-05-23T11:24:39.236Z,67.6
2018-05-23T11:25:29.460Z,67.7
2018-05-23T11:26:19.629Z,67.8